createdAt,value
2023-02-03T00:01:46.550Z,11.939799331103679
2023-02-03T00:08:08.057Z,12.294314381270903
2023-02-03T00:14:29.148Z,11.785953177257525
2023-02-03T00:20:50.597Z,10.354515050167224
2023-02-03T00:27:11.360Z,9.729096989966555
2023-02-03T00:33:42.085Z,10.297658862876254
2023-02-03T00:40:03.385Z,9.304347826086957
2023-02-03T00:46:24.669Z,9.404682274247492
2023-02-03T00:56:51.862Z,8.525083612040135
2023-02-03T01:03:13.073Z,7.879598662207358
2023-02-03T01:09:34.732Z,7.0602006688963215
2023-02-03T01:15:56.282Z,6.54180602006689
2023-02-03T01:22:18.347Z,6.026755852842809
2023-02-03T01:34:54.951Z,5.063545150501672
2023-02-03T01:47:19.141Z,5.070234113712375
2023-02-03T01:53:40.026Z,6.678929765886288
2023-02-03T02:00:01.614Z,6.010033444816053
2023-02-03T02:07:29.833Z,7.481605351170568
2023-02-03T02:16:33.657Z,8.053511705685619
2023-02-03T02:23:28.795Z,7.909698996655519
2023-02-03T02:29:50.058Z,7.782608695652174
2023-02-03T02:36:12.203Z,7.096989966555184
2023-02-03T02:42:33.700Z,6.508361204013378
2023-02-03T02:48:55.349Z,6.538461538461538
2023-02-03T02:55:16.673Z,5.996655518394649
2023-02-03T03:01:38.226Z,4.976588628762542
2023-02-03T03:07:59.281Z,4.608695652173913
2023-02-03T03:18:53.518Z,3.7558528428093645
2023-02-03T03:29:54.742Z,4.384615384615385
2023-02-03T03:42:21.780Z,4.451505016722408
2023-02-03T03:54:20.581Z,5.070234113712375
2023-02-03T04:06:32.567Z,4.642140468227424
2023-02-03T04:12:54.237Z,6.1003344481605355
2023-02-03T04:19:17.026Z,5.9397993311036785
2023-02-03T04:25:38.583Z,6.481605351170568
2023-02-03T04:32:59.948Z,6.304347826086956
2023-02-03T04:44:06.445Z,6.424749163879599
2023-02-03T04:50:28.030Z,6.461538461538462
2023-02-03T04:56:59.948Z,5.869565217391305
2023-02-03T05:03:21.497Z,6.173913043478261
2023-02-03T05:11:51.758Z,5.929765886287625
2023-02-03T05:23:38.848Z,5.230769230769231
2023-02-03T05:29:59.458Z,5.528428093645485
2023-02-03T05:36:20.770Z,4.959866220735786
2023-02-03T05:42:41.522Z,4.311036789297659
2023-02-03T05:53:22.092Z,5.7792642140468224
2023-02-03T05:59:42.680Z,4.431438127090301
2023-02-03T06:06:04.222Z,4.956521739130435
2023-02-03T06:12:26.463Z,4.665551839464883
2023-02-03T06:18:49.313Z,4.769230769230769
2023-02-03T06:25:27.679Z,5.317725752508361
2023-02-03T06:31:49.772Z,5.94314381270903
2023-02-03T06:43:18.827Z,4.765886287625418
2023-02-03T06:53:38.533Z,4.936454849498328
2023-02-03T07:00:01.609Z,4.2441471571906355
2023-02-03T07:09:58.548Z,3.899665551839465
2023-02-03T07:16:23.570Z,3.270903010033445
2023-02-03T07:25:08.328Z,3.749163879598662
2023-02-03T07:31:31.434Z,3.3545150501672243
2023-02-03T07:42:28.716Z,3.431438127090301
2023-02-03T08:02:05.700Z,3.254180602006689
2023-02-03T08:08:27.823Z,3.471571906354515
2023-02-03T08:20:37.976Z,3.8729096989966556
2023-02-03T08:26:59.481Z,2.9866220735785953
2023-02-03T08:33:21.505Z,3.1839464882943145
2023-02-03T08:39:44.894Z,2.568561872909699
2023-02-03T08:46:09.735Z,2.6153846153846154
2023-02-03T08:52:34.242Z,2.1939799331103678
2023-02-03T08:58:57.597Z,2.277591973244147
2023-02-03T09:07:32.938Z,2.297658862876254
2023-02-03T09:17:50.164Z,2.8260869565217392
2023-02-03T09:24:14.504Z,1.7959866220735785
2023-02-03T09:30:39.155Z,1.434782608695652
2023-02-03T09:37:02.869Z,0.822742474916388
2023-02-03T09:43:27.146Z,0.7123745819397993
2023-02-03T09:49:51.551Z,2.297658862876254
2023-02-03T09:56:16.350Z,1.62876254180602
2023-02-03T10:05:39.148Z,2.408026755852843
2023-02-03T10:12:03.628Z,2.301003344481605
2023-02-03T10:18:27.795Z,2.297658862876254
2023-02-03T10:24:52.142Z,3.8528428093645486
2023-02-03T10:31:16.806Z,4.588628762541806
2023-02-03T10:37:40.951Z,4.20066889632107
2023-02-03T10:46:43.442Z,5.7324414715719065
2023-02-03T10:58:04.278Z,6.093645484949833
2023-02-03T11:04:28.369Z,4.933110367892977
2023-02-03T11:10:51.821Z,5.361204013377926
2023-02-03T11:17:32.432Z,4.461538461538462
2023-02-03T11:33:47.658Z,4.076923076923077
2023-02-03T11:40:12.369Z,2.9063545150501673
2023-02-03T11:46:37.094Z,4.023411371237458
2023-02-03T11:53:00.673Z,2.140468227424749
2023-02-03T12:00:13.117Z,3.4013377926421406
2023-02-03T12:06:37.048Z,3.4581939799331103
2023-02-03T12:13:01.120Z,2.3946488294314383
2023-02-03T12:19:25.703Z,2.2274247491638794
2023-02-03T12:25:49.683Z,2.4180602006688963
2023-02-03T12:32:14.397Z,2.180602006688963
2023-02-03T12:41:09.414Z,2.7157190635451505
2023-02-03T12:49:22.967Z,1.9264214046822743
2023-02-03T12:55:47.143Z,2.060200668896321
2023-02-03T13:03:10.904Z,1.7157190635451505
2023-02-03T13:11:10.088Z,2.3846153846153846
2023-02-03T13:23:13.401Z,1.4280936454849498
2023-02-03T13:29:37.630Z,1.7892976588628762
2023-02-03T13:37:17.853Z,3.879598662207358
2023-02-03T13:43:40.991Z,3.040133779264214
2023-02-03T13:50:04.695Z,4.150501672240803
2023-02-03T13:56:29.331Z,6.294314381270903
2023-02-03T14:02:53.321Z,5.337792642140468
2023-02-03T14:09:17.630Z,3.1939799331103678
2023-02-03T14:17:41.115Z,1.899665551839465
2023-02-03T14:25:11.946Z,2.4013377926421406
2023-02-03T14:31:35.218Z,1.8494983277591974
2023-02-03T14:40:52.471Z,2.869565217391304
2023-02-03T14:47:15.692Z,2.648829431438127
2023-02-03T14:53:39.856Z,4.618729096989966
2023-02-03T15:00:03.640Z,6.451505016722408
2023-02-03T15:06:28.000Z,6.511705685618729
2023-02-03T15:18:10.164Z,2.9297658862876252
2023-02-03T15:24:33.263Z,2.849498327759197
2023-02-03T15:30:57.313Z,2.1839464882943145
2023-02-03T15:37:20.681Z,2.2040133779264215
2023-02-03T15:43:43.789Z,2.220735785953177
2023-02-03T15:50:07.465Z,2.130434782608696
2023-02-03T15:56:31.353Z,2.347826086956522
2023-02-03T16:02:53.915Z,3.809364548494983
2023-02-03T16:09:14.560Z,3.4180602006688963
2023-02-03T16:15:35.850Z,6.1237458193979935
2023-02-03T16:26:42.025Z,7.063545150501672
2023-02-03T16:33:02.519Z,6.250836120401337
2023-02-03T16:43:26.881Z,6.709030100334449
2023-02-03T16:49:47.867Z,6.8561872909699
2023-02-03T16:56:08.545Z,6.488294314381271
2023-02-03T17:10:05.917Z,4.3879598662207355
2023-02-03T17:16:27.332Z,4.187290969899665
2023-02-03T17:22:48.756Z,5.25752508361204
2023-02-03T17:33:39.000Z,6.377926421404682
2023-02-03T17:59:37.435Z,5.478260869565218
2023-02-03T18:05:59.180Z,5.234113712374582
2023-02-03T18:12:20.100Z,5.40133779264214
2023-02-03T18:19:55.820Z,12.240802675585284
2023-02-03T18:26:17.218Z,11.698996655518394
2023-02-03T18:37:12.769Z,11.006688963210703
2023-02-03T18:43:34.534Z,9.307692307692308
2023-02-03T18:49:55.831Z,10.62541806020067
2023-02-03T18:56:17.573Z,8.94314381270903
2023-02-03T19:02:42.247Z,8.74247491638796
2023-02-03T19:09:05.481Z,7.408026755852843
2023-02-03T19:15:28.715Z,9.304347826086957
2023-02-03T19:21:51.241Z,10.91304347826087
2023-02-03T19:33:50.816Z,9.42809364548495
2023-02-03T19:40:16.749Z,10.892976588628763
2023-02-03T19:46:42.752Z,8.85953177257525
2023-02-03T19:53:05.858Z,6.892976588628763
2023-02-03T19:59:29.786Z,6.7324414715719065
2023-02-03T20:05:55.375Z,7.1237458193979935
2023-02-03T20:12:19.007Z,7.351170568561873
2023-02-03T20:18:40.566Z,7.321070234113712
2023-02-03T20:25:03.327Z,7.434782608695652
2023-02-03T20:31:25.841Z,7.946488294314381
2023-02-03T20:37:49.124Z,6.662207357859532
2023-02-03T20:45:20.949Z,9.311036789297658
2023-02-03T20:51:44.888Z,6.367892976588629
2023-02-03T20:58:06.456Z,5.842809364548495
2023-02-03T21:04:28.243Z,5.698996655518394
2023-02-03T21:10:49.848Z,5.247491638795987
2023-02-03T21:17:12.820Z,5.558528428093646
2023-02-03T21:28:44.463Z,4.511705685618729
2023-02-03T21:41:04.849Z,6.414715719063545
2023-02-03T21:47:28.145Z,10.053511705685619
2023-02-03T21:53:54.573Z,7.816053511705686
2023-02-03T22:00:22.935Z,6.026755852842809
2023-02-03T22:09:31.794Z,5.6120401337792645
2023-02-03T22:15:55.464Z,8.752508361204013
2023-02-03T22:22:19.614Z,6.1438127090301
2023-02-03T22:28:45.479Z,4.702341137123746
2023-02-03T22:35:12.120Z,4.364548494983278
2023-02-03T22:47:31.339Z,3.0133779264214047
2023-02-03T22:53:58.121Z,3.3779264214046822
2023-02-03T23:00:27.405Z,2.8862876254180603
2023-02-03T23:06:52.231Z,1.8361204013377928
2023-02-03T23:13:18.086Z,2.0535117056856187
2023-02-03T23:19:42.946Z,1.0367892976588629
2023-02-03T23:26:04.193Z,1.6020066889632107
2023-02-03T23:32:25.935Z,1.0869565217391304
2023-02-03T23:38:47.715Z,0.6789297658862876
2023-02-03T23:45:09.149Z,1.0100334448160535
2023-02-03T23:52:23.556Z,0.411371237458194
